createdAt,value
2019-04-09T00:00:52.091Z,8.80
2019-04-09T00:03:21.019Z,8.57
2019-04-09T00:05:50.053Z,8.47
2019-04-09T00:08:18.982Z,8.83
2019-04-09T00:10:47.690Z,8.60
2019-04-09T00:13:16.996Z,8.90
2019-04-09T00:15:45.762Z,8.80
2019-04-09T00:18:15.745Z,8.50
2019-04-09T00:20:44.855Z,8.27
2019-04-09T00:23:13.742Z,9.37
2019-04-09T00:25:42.574Z,8.30
2019-04-09T00:28:11.884Z,9.77
2019-04-09T00:30:40.420Z,8.60
2019-04-09T00:33:09.908Z,10.10
2019-04-09T00:35:38.813Z,9.60
2019-04-09T00:38:07.187Z,8.40
2019-04-09T00:40:35.686Z,9.83
2019-04-09T00:43:04.132Z,9.03
2019-04-09T00:45:32.618Z,9.53
2019-04-09T00:48:01.050Z,9.80
2019-04-09T00:50:29.553Z,10.13
2019-04-09T00:52:58.917Z,9.70
2019-04-09T00:55:27.459Z,10.23
2019-04-09T00:57:56.077Z,9.57
2019-04-09T01:00:26.227Z,10.27
2019-04-09T01:02:54.681Z,10.87
2019-04-09T01:05:23.160Z,10.40
2019-04-09T01:07:51.692Z,10.57
2019-04-09T01:10:20.179Z,10.43
2019-04-09T01:12:48.644Z,9.60
2019-04-09T01:15:17.122Z,10.50
2019-04-09T01:17:45.873Z,11.53
2019-04-09T01:20:15.575Z,11.23
2019-04-09T01:22:44.093Z,10.30
2019-04-09T01:25:14.594Z,10.87
2019-04-09T01:27:45.709Z,10.57
2019-04-09T01:30:34.225Z,9.03
2019-04-09T01:33:05.175Z,10.00
2019-04-09T01:35:53.602Z,10.80
2019-04-09T01:38:27.390Z,10.93
2019-04-09T01:41:12.919Z,10.33
2019-04-09T01:43:52.164Z,11.73
2019-04-09T01:46:33.829Z,11.00
2019-04-09T01:49:12.950Z,10.80
2019-04-09T01:52:02.015Z,10.30
2019-04-09T01:54:32.215Z,10.67
2019-04-09T01:57:24.403Z,11.73
2019-04-09T01:59:58.935Z,10.43
2019-04-09T02:02:42.003Z,9.90
2019-04-09T02:05:15.300Z,10.53
2019-04-09T02:08:03.661Z,10.57
2019-04-09T02:10:33.801Z,10.97
2019-04-09T02:13:03.945Z,10.40
2019-04-09T02:15:34.945Z,10.63
2019-04-09T02:18:05.262Z,10.27
2019-04-09T02:20:52.129Z,10.53
2019-04-09T02:23:32.080Z,10.90
2019-04-09T02:26:14.557Z,10.40
2019-04-09T02:28:56.529Z,10.23
2019-04-09T02:31:44.869Z,10.57
2019-04-09T02:34:18.865Z,10.50
2019-04-09T02:36:55.242Z,10.80
2019-04-09T02:39:31.132Z,11.47
2019-04-09T02:42:02.020Z,10.77
2019-04-09T02:44:35.277Z,10.27
2019-04-09T02:47:11.559Z,12.40
2019-04-09T02:49:56.654Z,11.90
2019-04-09T02:52:43.563Z,11.03
2019-04-09T02:55:14.374Z,10.80
2019-04-09T02:58:00.542Z,11.57
2019-04-09T03:00:46.502Z,10.13
2019-04-09T03:03:17.116Z,11.60
2019-04-09T03:05:53.514Z,9.90
2019-04-09T03:08:39.701Z,10.97
2019-04-09T03:11:10.305Z,9.70
2019-04-09T03:13:59.579Z,10.63
2019-04-09T03:16:38.443Z,10.13
2019-04-09T03:19:18.406Z,10.90
2019-04-09T03:21:54.738Z,10.77
2019-04-09T03:24:28.112Z,10.90
2019-04-09T03:27:16.195Z,11.33
2019-04-09T03:30:03.534Z,10.77
2019-04-09T03:32:35.620Z,10.43
2019-04-09T03:35:07.888Z,9.83
2019-04-09T03:37:37.991Z,10.97
2019-04-09T03:40:09.121Z,10.27
2019-04-09T03:42:42.194Z,10.70
2019-04-09T03:45:18.446Z,11.10
2019-04-09T03:47:57.449Z,11.17
2019-04-09T03:50:28.515Z,11.17
2019-04-09T03:53:01.276Z,10.20
2019-04-09T03:55:32.220Z,11.57
2019-04-09T03:58:16.339Z,10.97
2019-04-09T04:00:50.232Z,10.40
2019-04-09T04:03:20.523Z,11.23
2019-04-09T04:05:50.653Z,10.90
2019-04-09T04:08:26.718Z,10.83
2019-04-09T04:10:57.336Z,11.80
2019-04-09T04:13:30.988Z,11.20
2019-04-09T04:16:01.486Z,11.40
2019-04-09T04:18:34.533Z,11.70
2019-04-09T04:21:04.679Z,10.90
2019-04-09T04:23:41.101Z,10.80
2019-04-09T04:26:11.664Z,11.93
2019-04-09T04:28:58.713Z,11.23
2019-04-09T04:31:44.431Z,11.10
2019-04-09T04:34:23.378Z,11.10
2019-04-09T04:36:53.504Z,11.10
2019-04-09T04:39:24.493Z,10.97
2019-04-09T04:41:54.776Z,12.03
2019-04-09T04:44:39.912Z,10.60
2019-04-09T04:47:19.154Z,12.20
2019-04-09T04:50:05.802Z,11.80
2019-04-09T04:52:44.649Z,12.23
2019-04-09T04:55:59.473Z,11.43
2019-04-09T04:58:41.112Z,11.13
2019-04-09T05:01:13.733Z,11.73
2019-04-09T05:03:46.743Z,11.97
2019-04-09T05:06:22.649Z,11.30
2019-04-09T05:09:08.735Z,11.20
2019-04-09T05:11:55.150Z,12.30
2019-04-09T05:14:31.817Z,11.43
2019-04-09T05:17:12.018Z,13.00
2019-04-09T05:20:00.584Z,11.13
2019-04-09T05:22:47.063Z,11.17
2019-04-09T05:25:27.219Z,11.97
2019-04-09T05:27:58.343Z,11.70
2019-04-09T05:30:46.306Z,11.70
2019-04-09T05:33:22.688Z,11.17
2019-04-09T05:35:59.299Z,12.33
2019-04-09T05:38:44.325Z,11.77
2019-04-09T05:41:30.478Z,11.10
2019-04-09T05:44:03.032Z,10.60
2019-04-09T05:46:33.132Z,11.43
2019-04-09T05:49:05.742Z,11.40
2019-04-09T05:51:39.590Z,11.93
2019-04-09T05:54:19.593Z,11.17
2019-04-09T05:56:52.828Z,11.60
2019-04-09T05:59:37.762Z,12.13
2019-04-09T06:02:25.912Z,12.03
2019-04-09T06:05:12.207Z,11.57
2019-04-09T06:07:42.972Z,11.30
2019-04-09T06:10:11.601Z,11.50
2019-04-09T06:12:40.703Z,12.63
2019-04-09T06:15:09.203Z,11.63
2019-04-09T06:17:37.742Z,12.03
2019-04-09T06:20:07.067Z,10.43
2019-04-09T06:22:35.569Z,13.87
2019-04-09T06:25:05.018Z,11.60
2019-04-09T06:27:33.503Z,11.60
2019-04-09T06:30:02.897Z,12.80
2019-04-09T06:32:49.291Z,11.43
2019-04-09T06:35:34.499Z,12.33
2019-04-09T06:38:07.294Z,11.43
2019-04-09T06:40:39.636Z,11.67
2019-04-09T06:43:12.853Z,11.50
2019-04-09T06:45:45.036Z,11.67
2019-04-09T06:48:15.338Z,11.23
2019-04-09T06:50:54.689Z,11.50
2019-04-09T06:53:27.787Z,12.10
2019-04-09T06:56:07.378Z,12.50
2019-04-09T06:58:38.597Z,11.10
2019-04-09T07:01:11.433Z,11.80
2019-04-09T07:03:57.527Z,11.10
2019-04-09T07:06:31.272Z,11.50
2019-04-09T07:09:01.874Z,10.90
2019-04-09T07:11:46.825Z,11.77
2019-04-09T07:14:26.482Z,10.80
2019-04-09T07:17:12.556Z,12.10
2019-04-09T07:19:45.598Z,11.93
2019-04-09T07:22:34.033Z,11.33
2019-04-09T07:25:04.124Z,11.73
2019-04-09T07:27:37.243Z,10.03
2019-04-09T07:30:13.724Z,10.17
2019-04-09T07:32:59.346Z,10.43
2019-04-09T07:35:38.282Z,9.83
2019-04-09T07:38:18.370Z,10.43
2019-04-09T07:41:08.198Z,10.40
2019-04-09T07:43:38.908Z,11.47
2019-04-09T07:46:20.943Z,9.87
2019-04-09T07:49:09.721Z,10.77
2019-04-09T07:51:45.879Z,11.20
2019-04-09T07:54:23.615Z,10.10
2019-04-09T07:57:04.252Z,10.80
2019-04-09T07:59:36.532Z,10.60
2019-04-09T08:02:06.344Z,10.30
2019-04-09T08:04:42.655Z,10.40
2019-04-09T08:07:24.178Z,10.87
2019-04-09T08:09:57.749Z,9.20
2019-04-09T08:12:33.647Z,10.37
2019-04-09T08:15:04.518Z,9.83
2019-04-09T08:17:50.282Z,10.03
2019-04-09T08:20:32.488Z,10.47
2019-04-09T08:23:11.448Z,10.90
2019-04-09T08:25:46.306Z,9.50
2019-04-09T08:28:25.291Z,10.20
2019-04-09T08:31:01.531Z,10.50
2019-04-09T08:33:51.162Z,9.33
2019-04-09T08:36:21.355Z,9.87
2019-04-09T08:39:01.268Z,10.03
2019-04-09T08:41:29.053Z,10.33
2019-04-09T08:44:05.460Z,9.47
2019-04-09T08:46:34.460Z,10.50
2019-04-09T08:49:04.612Z,10.10
2019-04-09T08:51:39.290Z,10.43
2019-04-09T08:54:12.103Z,10.57
2019-04-09T08:56:53.169Z,9.97
2019-04-09T08:59:41.333Z,9.70
2019-04-09T09:02:22.714Z,9.70
2019-04-09T09:05:05.558Z,9.20
2019-04-09T09:07:30.705Z,9.10
2019-04-09T09:10:04.080Z,9.27
2019-04-09T09:12:38.867Z,9.83
2019-04-09T09:15:16.320Z,9.87
2019-04-09T09:18:01.418Z,11.03
2019-04-09T09:20:49.399Z,10.20
2019-04-09T09:23:22.412Z,10.50
2019-04-09T09:26:08.780Z,9.03
2019-04-09T09:28:57.722Z,9.53
2019-04-09T09:31:33.900Z,10.63
2019-04-09T09:34:06.448Z,10.40
2019-04-09T09:36:38.142Z,10.20
2019-04-09T09:39:15.142Z,9.93
2019-04-09T09:41:50.986Z,8.90
2019-04-09T09:44:27.044Z,8.60
2019-04-09T09:46:57.159Z,9.23
2019-04-09T09:49:31.915Z,9.17
2019-04-09T09:52:08.905Z,9.63
2019-04-09T09:54:50.859Z,9.27
2019-04-09T09:57:27.908Z,9.60
2019-04-09T10:00:06.033Z,8.47
2019-04-09T10:02:39.148Z,8.90
2019-04-09T10:05:20.360Z,9.07
2019-04-09T10:08:03.056Z,9.40
2019-04-09T10:10:32.008Z,8.87
2019-04-09T10:13:04.931Z,9.13
2019-04-09T10:15:51.136Z,8.80
2019-04-09T10:18:21.321Z,9.83
2019-04-09T10:20:57.301Z,8.70
2019-04-09T10:23:39.964Z,11.27
2019-04-09T10:26:17.125Z,10.57
2019-04-09T10:28:58.316Z,9.40
2019-04-09T10:31:40.087Z,10.03
2019-04-09T10:34:06.129Z,9.90
2019-04-09T10:36:45.551Z,9.40
2019-04-09T10:39:16.093Z,10.10
2019-04-09T10:41:56.306Z,10.00
2019-04-09T10:44:26.749Z,11.07
2019-04-09T10:47:13.962Z,10.87
2019-04-09T10:49:43.807Z,11.17
2019-04-09T10:52:22.268Z,12.03
2019-04-09T10:55:05.922Z,11.30
2019-04-09T10:57:36.874Z,13.50
2019-04-09T11:00:25.743Z,13.27
2019-04-09T11:03:14.570Z,13.67
2019-04-09T11:05:48.851Z,12.83
2019-04-09T11:08:17.145Z,12.13
2019-04-09T11:10:56.845Z,15.10
2019-04-09T11:13:30.182Z,14.40
2019-04-09T11:16:03.453Z,14.10
2019-04-09T11:18:39.422Z,14.33
2019-04-09T11:21:12.436Z,14.43
2019-04-09T11:24:00.008Z,14.00
2019-04-09T11:26:32.288Z,14.60
2019-04-09T11:29:35.070Z,14.27
2019-04-09T11:32:09.534Z,14.27
2019-04-09T11:34:36.952Z,14.30
2019-04-09T11:37:07.641Z,13.70
2019-04-09T11:39:38.548Z,14.20
2019-04-09T11:42:15.172Z,13.50
2019-04-09T11:45:01.891Z,12.90
2019-04-09T11:47:44.212Z,11.73
2019-04-09T11:50:20.506Z,13.10
2019-04-09T11:52:56.580Z,13.47
2019-04-09T11:55:33.434Z,13.60
2019-04-09T11:58:13.165Z,13.27
2019-04-09T12:00:52.657Z,13.30
2019-04-09T12:03:23.278Z,12.40
2019-04-09T12:05:56.851Z,12.53
2019-04-09T12:08:26.975Z,12.27
2019-04-09T12:10:57.064Z,11.97
2019-04-09T12:13:30.741Z,12.40
2019-04-09T12:16:15.964Z,12.43
2019-04-09T12:18:46.496Z,11.27
2019-04-09T12:21:29.135Z,11.70
2019-04-09T12:24:15.291Z,11.03
2019-04-09T12:27:03.131Z,10.73
2019-04-09T12:29:35.809Z,10.47
2019-04-09T12:32:21.653Z,10.43
2019-04-09T12:34:52.885Z,10.17
2019-04-09T12:37:23.708Z,10.40
2019-04-09T12:39:54.028Z,9.97
2019-04-09T12:42:26.780Z,10.10
2019-04-09T12:45:03.040Z,9.20
2019-04-09T12:47:36.380Z,9.53
2019-04-09T12:50:16.529Z,9.90
2019-04-09T12:52:56.535Z,8.80
2019-04-09T12:55:26.815Z,8.00
2019-04-09T12:58:02.526Z,8.13
2019-04-09T13:00:32.743Z,8.67
2019-04-09T13:03:06.884Z,8.57
2019-04-09T13:05:49.477Z,9.97
2019-04-09T13:08:23.280Z,8.23
2019-04-09T13:11:08.543Z,9.20
2019-04-09T13:13:41.340Z,9.07
2019-04-09T13:16:23.923Z,8.53
2019-04-09T13:19:11.256Z,8.77
2019-04-09T13:21:41.458Z,9.17
2019-04-09T13:24:11.562Z,8.80
2019-04-09T13:26:41.735Z,7.90
2019-04-09T13:29:12.498Z,8.97
2019-04-09T13:31:52.827Z,9.43
2019-04-09T13:34:23.681Z,9.83
2019-04-09T13:36:56.579Z,9.37
2019-04-09T13:39:27.357Z,10.97
2019-04-09T13:41:57.644Z,10.37
2019-04-09T13:44:27.880Z,9.23
2019-04-09T13:47:03.821Z,8.97
2019-04-09T13:49:52.584Z,9.07
2019-04-09T13:52:32.022Z,9.10
2019-04-09T13:55:02.118Z,9.70
2019-04-09T13:57:31.792Z,9.70
2019-04-09T14:00:00.671Z,11.47
2019-04-09T14:02:30.005Z,11.37
2019-04-09T14:05:10.358Z,11.83
2019-04-09T14:07:39.548Z,11.90
2019-04-09T14:10:10.268Z,13.07
2019-04-09T14:12:39.146Z,13.30
2019-04-09T14:15:09.993Z,11.73
2019-04-09T14:17:38.970Z,11.83
2019-04-09T14:20:09.506Z,12.57
2019-04-09T14:22:38.343Z,13.40
2019-04-09T14:25:10.380Z,13.60
2019-04-09T14:27:41.045Z,13.90
2019-04-09T14:30:11.231Z,13.77
2019-04-09T14:32:40.752Z,15.17
2019-04-09T14:35:09.767Z,15.00
2019-04-09T14:37:40.345Z,15.10
2019-04-09T14:40:09.814Z,14.80
2019-04-09T14:42:38.929Z,15.30
2019-04-09T14:45:07.858Z,15.07
2019-04-09T14:47:37.095Z,15.90
2019-04-09T14:50:09.512Z,14.97
2019-04-09T14:52:50.669Z,14.47
2019-04-09T14:55:08.644Z,14.63
2019-04-09T14:57:37.508Z,14.30
2019-04-09T15:00:09.969Z,15.10
2019-04-09T15:02:38.602Z,14.90
2019-04-09T15:05:09.757Z,14.13
2019-04-09T15:07:39.570Z,14.20
2019-04-09T15:10:09.197Z,13.70
2019-04-09T15:12:38.036Z,13.70
2019-04-09T15:15:08.571Z,13.40
2019-04-09T15:17:37.459Z,14.30
2019-04-09T15:20:06.851Z,14.23
2019-04-09T15:22:36.539Z,14.40
2019-04-09T15:25:07.270Z,14.00
2019-04-09T15:27:35.850Z,15.23
2019-04-09T15:30:06.291Z,15.30
2019-04-09T15:32:35.361Z,14.67
2019-04-09T15:35:06.481Z,12.77
2019-04-09T15:37:37.417Z,13.37
2019-04-09T15:40:06.809Z,13.03
2019-04-09T15:42:35.468Z,14.03
2019-04-09T15:45:06.741Z,13.63
2019-04-09T15:47:35.800Z,13.80
2019-04-09T15:50:08.728Z,13.80
2019-04-09T15:52:38.718Z,13.90
2019-04-09T15:55:10.021Z,14.10
2019-04-09T15:57:37.897Z,13.60
2019-04-09T16:00:08.476Z,12.93
2019-04-09T16:02:36.982Z,13.50
2019-04-09T16:05:07.039Z,13.13
2019-04-09T16:07:36.158Z,13.07
2019-04-09T16:10:06.387Z,13.00
2019-04-09T16:12:34.929Z,13.57
2019-04-09T16:15:04.936Z,13.80
2019-04-09T16:17:33.547Z,13.73
2019-04-09T16:20:02.103Z,13.67
2019-04-09T16:22:30.756Z,12.00
2019-04-09T16:24:59.439Z,12.90
2019-04-09T16:27:28.315Z,12.63
2019-04-09T16:29:56.971Z,11.80
2019-04-09T16:32:25.888Z,12.30
2019-04-09T16:34:54.690Z,11.37
2019-04-09T16:37:25.677Z,12.10
2019-04-09T16:39:54.602Z,12.10
2019-04-09T16:42:34.496Z,11.30
2019-04-09T16:45:00.812Z,12.00
2019-04-09T16:47:24.409Z,11.37
2019-04-09T16:49:54.132Z,11.57
2019-04-09T16:52:22.886Z,11.23
2019-04-09T16:54:51.535Z,11.40
2019-04-09T16:57:21.451Z,12.10
2019-04-09T16:59:50.587Z,12.17
2019-04-09T17:02:19.235Z,12.30
2019-04-09T17:04:47.709Z,12.10
2019-04-09T17:07:17.611Z,12.07
2019-04-09T17:09:46.160Z,12.87
2019-04-09T17:12:15.755Z,12.00
2019-04-09T17:14:45.967Z,12.30
2019-04-09T17:17:15.342Z,12.60
2019-04-09T17:19:43.957Z,12.63
2019-04-09T17:22:12.527Z,11.13
2019-04-09T17:24:41.317Z,12.67
2019-04-09T17:27:10.017Z,12.93
2019-04-09T17:29:39.385Z,11.90
2019-04-09T17:32:08.115Z,11.60
2019-04-09T17:34:38.089Z,12.70
2019-04-09T17:37:07.270Z,13.77
2019-04-09T17:39:35.917Z,11.67
2019-04-09T17:42:09.712Z,11.33
2019-04-09T17:44:35.428Z,10.97
2019-04-09T17:47:04.102Z,11.57
2019-04-09T17:49:33.355Z,9.10
2019-04-09T17:52:02.012Z,10.03
2019-04-09T17:54:30.641Z,9.40
2019-04-09T17:56:59.374Z,10.00
2019-04-09T17:59:29.096Z,9.57
2019-04-09T18:01:57.909Z,9.47
2019-04-09T18:04:40.125Z,10.13
2019-04-09T18:06:57.752Z,9.63
2019-04-09T18:09:29.368Z,9.07
2019-04-09T18:11:59.596Z,9.27
2019-04-09T18:14:29.070Z,8.60
2019-04-09T18:17:05.011Z,8.10
2019-04-09T18:19:33.959Z,7.93
2019-04-09T18:22:03.115Z,7.00
2019-04-09T18:24:32.250Z,6.67
2019-04-09T18:27:03.209Z,6.93
2019-04-09T18:29:33.416Z,6.17
2019-04-09T18:32:03.153Z,6.33
2019-04-09T18:34:34.007Z,6.07
2019-04-09T18:37:03.765Z,5.60
2019-04-09T18:39:33.888Z,5.50
2019-04-09T18:42:03.202Z,6.43
2019-04-09T18:44:31.804Z,6.27
2019-04-09T18:47:00.298Z,6.17
2019-04-09T18:49:29.583Z,5.57
2019-04-09T18:52:02.906Z,6.53
2019-04-09T18:54:34.480Z,6.60
2019-04-09T18:57:03.736Z,5.97
2019-04-09T18:59:33.932Z,5.53
2019-04-09T19:02:03.716Z,5.77
2019-04-09T19:04:32.631Z,6.60
2019-04-09T19:07:01.943Z,5.57
2019-04-09T19:09:30.793Z,5.83
2019-04-09T19:12:00.361Z,5.00
2019-04-09T19:14:30.168Z,5.50
2019-04-09T19:16:58.992Z,5.87
2019-04-09T19:19:27.691Z,5.57
2019-04-09T19:21:56.888Z,5.67
2019-04-09T19:24:25.450Z,5.50
2019-04-09T19:26:54.907Z,6.30
2019-04-09T19:29:23.571Z,5.97
2019-04-09T19:32:03.887Z,5.70
2019-04-09T19:34:50.224Z,5.60
2019-04-09T19:37:19.594Z,5.67
2019-04-09T19:40:06.015Z,5.17
2019-04-09T19:42:35.484Z,5.70
2019-04-09T19:45:06.656Z,4.83
2019-04-09T19:47:35.537Z,5.67
2019-04-09T19:50:06.076Z,5.40
2019-04-09T19:52:35.510Z,5.60
2019-04-09T19:55:06.242Z,5.07
2019-04-09T19:57:35.744Z,5.40
2019-04-09T20:00:06.759Z,5.27
2019-04-09T20:02:35.719Z,5.00
2019-04-09T20:05:06.308Z,4.97
2019-04-09T20:07:35.228Z,5.13
2019-04-09T20:10:06.953Z,4.63
2019-04-09T20:12:35.810Z,6.07
2019-04-09T20:15:04.811Z,7.23
2019-04-09T20:17:33.348Z,5.13
2019-04-09T20:20:02.066Z,5.20
2019-04-09T20:22:31.600Z,4.83
2019-04-09T20:25:00.278Z,5.13
2019-04-09T20:27:28.805Z,5.17
2019-04-09T20:29:57.373Z,5.13
2019-04-09T20:32:26.427Z,5.30
2019-04-09T20:35:04.261Z,5.17
2019-04-09T20:37:25.174Z,4.93
2019-04-09T20:39:53.653Z,4.57
2019-04-09T20:42:22.540Z,5.17
2019-04-09T20:44:52.392Z,4.53
2019-04-09T20:47:20.929Z,4.63
2019-04-09T20:49:49.361Z,5.20
2019-04-09T20:52:17.899Z,5.90
2019-04-09T20:54:51.243Z,5.10
2019-04-09T20:57:19.844Z,5.63
2019-04-09T21:00:06.132Z,5.47
2019-04-09T21:02:40.390Z,5.10
2019-04-09T21:05:11.963Z,6.23
2019-04-09T21:07:40.510Z,7.00
2019-04-09T21:10:14.993Z,5.40
2019-04-09T21:12:48.856Z,5.23
2019-04-09T21:15:18.535Z,5.40
2019-04-09T21:17:47.144Z,5.60
2019-04-09T21:20:16.217Z,5.97
2019-04-09T21:22:45.905Z,5.23
2019-04-09T21:25:16.201Z,6.30
2019-04-09T21:27:45.610Z,5.33
2019-04-09T21:30:14.258Z,5.77
2019-04-09T21:32:42.724Z,5.53
2019-04-09T21:35:11.175Z,6.17
2019-04-09T21:37:40.131Z,5.00
2019-04-09T21:40:08.978Z,5.87
2019-04-09T21:42:38.520Z,6.00
2019-04-09T21:45:07.606Z,5.30
2019-04-09T21:47:36.534Z,5.90
2019-04-09T21:50:06.911Z,5.97
2019-04-09T21:52:35.401Z,5.60
2019-04-09T21:55:05.263Z,6.17
2019-04-09T21:57:35.755Z,5.67
2019-04-09T22:00:14.372Z,5.97
2019-04-09T22:02:43.335Z,6.10
2019-04-09T22:05:12.150Z,6.83
2019-04-09T22:07:41.372Z,6.70
2019-04-09T22:10:11.557Z,6.40
2019-04-09T22:12:40.131Z,6.00
2019-04-09T22:15:08.787Z,5.87
2019-04-09T22:17:38.304Z,6.03
2019-04-09T22:20:07.809Z,6.23
2019-04-09T22:22:37.483Z,5.80
2019-04-09T22:25:05.975Z,6.20
2019-04-09T22:27:35.440Z,6.03
2019-04-09T22:30:06.083Z,6.47
2019-04-09T22:32:34.574Z,6.67
2019-04-09T22:35:04.430Z,6.50
2019-04-09T22:37:34.252Z,6.43
2019-04-09T22:40:04.335Z,6.70
2019-04-09T22:42:33.761Z,6.10
2019-04-09T22:45:02.365Z,6.80
2019-04-09T22:47:31.278Z,6.57
2019-04-09T22:49:59.838Z,6.73
2019-04-09T22:52:28.546Z,6.90
2019-04-09T22:54:58.628Z,6.50
2019-04-09T22:57:28.243Z,6.40
2019-04-09T22:59:57.807Z,6.20
2019-04-09T23:02:34.342Z,7.07
2019-04-09T23:05:04.701Z,6.40
2019-04-09T23:07:34.789Z,6.60
2019-04-09T23:10:07.826Z,6.70
2019-04-09T23:12:45.994Z,6.60
2019-04-09T23:15:19.246Z,7.60
2019-04-09T23:17:48.359Z,7.00
2019-04-09T23:20:16.894Z,6.70
2019-04-09T23:22:45.352Z,6.80
2019-04-09T23:25:14.733Z,6.87
2019-04-09T23:27:43.430Z,6.73
2019-04-09T23:30:12.031Z,6.23
2019-04-09T23:32:41.443Z,7.00
2019-04-09T23:35:10.606Z,7.60
2019-04-09T23:37:39.720Z,6.60
2019-04-09T23:40:08.253Z,6.87
2019-04-09T23:42:37.129Z,6.90
2019-04-09T23:45:08.144Z,6.30
2019-04-09T23:47:37.512Z,7.20
2019-04-09T23:50:07.345Z,7.27
2019-04-09T23:52:36.535Z,7.00
2019-04-09T23:55:06.769Z,7.67
2019-04-09T23:57:36.289Z,7.40
